Bookmark and Share
Track history (hours):
 

Atlantic Companion

Last reported at 2014-Apr-20 02:33 UTC. Time now 2014-Apr-20 03:21 UTC.
Position N 40°17' W 073°49'.

Length 292 m; beam 32.3 m; draft 11.6 m.

Type: Cargo ship. MMSI: 265142000.

NotesDate/timePositionNaut miles runAvg speedWind from/ knotsBaromVisibWave heightAir tempDewpointWater temp
2014-Apr-20 02:33N 40°17' W 073°49'10 9.8
2014-Apr-20 01:33N 40°27' W 073°50'1110.8
2014-Apr-20 00:34N 40°33' W 074°02'8 7.9
2014-Apr-19 23:34N 40°39' W 074°09'1 1.0
2014-Apr-19 22:32N 40°40' W 074°09'0 0.0
2014-Apr-19 21:29N 40°40' W 074°09'0 0.0
2014-Apr-19 20:29N 40°40' W 074°09'0 0.0
2014-Apr-19 19:29N 40°40' W 074°09'0 0.0
2014-Apr-19 18:32N 40°40' W 074°09'0 0.0
2014-Apr-19 17:32N 40°40' W 074°09'0 0.0
2014-Apr-19 16:32N 40°40' W 074°09'0 0.0
2014-Apr-19 15:32N 40°40' W 074°09'0 0.0
2014-Apr-19 14:32N 40°40' W 074°09'0 0.0
2014-Apr-19 13:32N 40°40' W 074°09'0 0.0
2014-Apr-19 12:32N 40°40' W 074°09'0 0.0
2014-Apr-19 11:32N 40°40' W 074°09'0 0.0
2014-Apr-19 10:32N 40°40' W 074°09'0 0.0
2014-Apr-19 09:32N 40°40' W 074°09'0 0.0
2014-Apr-19 08:32N 40°40' W 074°09'0 0.0
2014-Apr-19 07:32N 40°40' W 074°09'0 0.0
2014-Apr-19 06:29N 40°40' W 074°09'0 0.0
2014-Apr-19 05:32N 40°40' W 074°09'0 0.0
2014-Apr-19 04:32N 40°40' W 074°09'0 0.0
2014-Apr-19 03:26N 40°40' W 074°09'0 0.0
2014-Apr-19 02:32N 40°40' W 074°09'0 0.0
2014-Apr-19 01:32N 40°40' W 074°09'0 0.0
2014-Apr-19 00:32N 40°40' W 074°09'0 0.0
2014-Apr-18 23:32N 40°40' W 074°09'0 0.0
2014-Apr-18 22:33N 40°40' W 074°09'2 1.7
2014-Apr-18 21:33N 40°41' W 074°08'1 0.5
2014-Apr-18 20:31N 40°42' W 074°08'0 0.0
2014-Apr-18 19:31N 40°42' W 074°08'0 0.0
2014-Apr-18 18:31N 40°42' W 074°08'0 0.0
2014-Apr-18 17:31N 40°42' W 074°08'0 0.0
2014-Apr-18 16:31N 40°42' W 074°08'0 0.0
2014-Apr-18 15:31N 40°42' W 074°08'0 0.0
2014-Apr-18 14:28N 40°42' W 074°08'0 0.0
2014-Apr-18 13:31N 40°42' W 074°08'0 0.0
2014-Apr-18 12:31N 40°42' W 074°08'0 0.0
2014-Apr-18 11:32N 40°42' W 074°08'3 3.4
2014-Apr-18 10:34N 40°38' W 074°09'5 5.2
2014-Apr-18 09:33N 40°36' W 074°03'1110.5
2014-Apr-18 08:33N 40°29' W 073°53'8 7.8
2014-Apr-18 07:33N 40°27' W 073°43'10 9.8
2014-Apr-18 06:33N 40°28' W 073°30'1615.9
2014-Apr-18 05:33N 40°30' W 073°09'1716.0
2014-Apr-18 04:31N 40°30' W 072°47'1516.1
2014-Apr-18 03:33N 40°30' W 072°27'1616.1
2014-Apr-18 02:34N 40°31' W 072°06'1616.1
2014-Apr-18 01:33N 40°31' W 071°45'1616.3
2014-Apr-18 00:33N 40°32' W 071°23'1816.8
2014-Apr-17 23:30N 40°32' W 071°00'1617.0
2014-Apr-17 22:34N 40°33' W 070°39'1817.9
2014-Apr-17 21:33N 40°33' W 070°16'1918.6
2014-Apr-17 20:33N 40°33' W 069°51'1918.6
2014-Apr-17 19:31N 40°34' W 069°26'4217.8
2014-Apr-17 17:10N 40°49' W 068°34'30917.5
2014-Apr-16 23:32N 44°21' W 063°29'1414.2
2014-Apr-16 22:33N 44°34' W 063°32'8 8.0
2014-Apr-16 21:33N 44°41' W 063°37'1 1.5
2014-Apr-16 20:33N 44°40' W 063°38'0 0.0
2014-Apr-16 19:25N 44°40' W 063°38'  
2014-Apr-14 12:00N 42°54' W 047°54'20116.8 340 / 211030.510.8 2.0 1.3 3.6
2014-Apr-14 00:00N 43°36' W 043°24'20917.4 320 / 191020.1 5.4 3.0 9.1 8.7
2014-Apr-13 12:00N 45°30' W 039°18'21317.8 140 / 31026.810.8 2.5 9.8 10.9
2014-Apr-13 00:00N 47°06' W 034°42'20917.4 040 / 71030.110.8 2.0 8.3 10.8
2014-Apr-12 12:00N 48°24' W 029°54'10517.6 310 / 71029.510.8 3.5 8.1 9.7
2014-Apr-12 06:00N 49°00' W 027°24'9716.2 310 / 161025.3 7.0 10.2
2014-Apr-12 00:00N 49°24' W 025°00'19716.4 330 / 221021.8 5.4 3.5 8.7 8.5
2014-Apr-11 12:00N 50°18' W 020°06'10517.5 220 / 281023.810.8 2.510.8 9.3
2014-Apr-11 06:00N 50°36' W 017°24'27117.2 260 / 121025.8 9.0 9.5
2014-Apr-10 14:12N 51°16' W 010°18'1317.4
2014-Apr-10 13:29N 51°17' W 009°58'1616.9
2014-Apr-10 12:33N 51°20' W 009°34'1717.0
2014-Apr-10 11:34N 51°25' W 009°08'1717.1
2014-Apr-10 10:33N 51°31' W 008°42'1717.2
2014-Apr-10 09:33N 51°36' W 008°15'1817.7
2014-Apr-10 08:33N 51°42' W 007°48'1817.7
2014-Apr-10 07:33N 51°48' W 007°22'1817.6
2014-Apr-10 06:33N 51°55' W 006°55'1717.1
2014-Apr-10 05:33N 52°02' W 006°30'  

Dump ship's entire track history

sailing weather and tide predictions

Atlantic Companion — SKPE — position and weather